Terminal Aerodrome Forecast
Issued by NWS Flagstaff, AZ

Home | Current Version | Previous Version | Text Only | Print | Product List | Glossary On
Versions: 1 2 3 4 5 6 7 8 9 10 11 12 13 14 15 16 17 18 19 20
000
FTUS45 KFGZ 301700
TAFFLG
TAF
KFLG 301732Z 3018/3118 07006KT 4SM -RA BR OVC005
      TEMPO 3018/3022 1SM -RA BR OVC003
     FM302300 VRB03KT P6SM VCSH SCT005 BKN015 OVC025
      TEMPO 3023/3103 5SM -SHRA BKN005 OVC015
     FM310300 VRB03KT 5SM -SHRA BKN005 OVC015=

USA.gov is the U.S. government's official web portal to all federal, state and local government web resources and services.